Time;durP1;ratioP1;P1;durP2;ratioP2;P2;SDS_P1;SDS_P2;PMS_P1;PMS_P2;Temp;Humidity;BMP_temperature;BMP_pressure;BME280_temperature;BME280_humidity;BME280_pressure;Samples;Min_cycle;Max_cycle;Signal;HPM_P1;HPM_P2
2021/09/30 00:02:17;;;;;;;1.03;0.80;;;13.80;99.90;;;;;;6322788;28;20230;-72
2021/09/30 00:05:20;;;;;;;1.00;0.80;;;14.00;99.90;;;;;;6321414;28;20216;-72
2021/09/30 00:08:23;;;;;;;1.30;0.70;;;14.10;99.90;;;;;;6321598;28;20239;-71
2021/09/30 00:11:27;;;;;;;2.27;0.80;;;14.20;99.90;;;;;;6322924;28;20182;-72
2021/09/30 00:14:47;;;;;;;1.33;0.90;;;14.30;99.90;;;;;;6321219;28;20198;-71
2021/09/30 00:41:16;;;;;;;0.90;0.80;;;14.50;99.90;;;;;;6322163;28;20194;-71
2021/09/30 00:47:52;;;;;;;1.37;1.10;;;14.50;99.90;;;;;;6322003;28;20202;-72
2021/09/30 02:29:39;;;;;;;1.23;0.50;;;13.90;99.90;;;;;;6310542;28;20205;-71
2021/09/30 03:00:26;;;;;;;0.70;0.70;;;13.80;99.90;;;;;;6317662;28;20221;-71
2021/09/30 03:03:33;;;;;;;0.70;0.70;;;13.70;99.90;;;;;;6317515;28;20271;-70
2021/09/30 03:06:36;;;;;;;1.17;0.80;;;13.70;99.90;;;;;;6317694;28;20728;-71
2021/09/30 03:09:43;;;;;;;1.47;1.30;;;13.60;99.90;;;;;;6301249;28;20198;-71
2021/09/30 03:12:47;;;;;;;3.30;1.00;;;13.60;99.90;;;;;;6317828;28;20194;-71
2021/09/30 03:15:59;;;;;;;1.77;1.20;;;13.60;99.90;;;;;;6317944;28;20193;-71
2021/09/30 03:20:26;;;;;;;1.20;1.10;;;13.50;99.90;;;;;;6319748;28;20197;-71
2021/09/30 03:22:38;;;;;;;3.07;1.50;;;13.50;99.90;;;;;;6318080;28;20281;-72
2021/09/30 03:25:45;;;;;;;1.43;1.33;;;13.50;99.90;;;;;;6322298;28;20220;-71
2021/09/30 03:28:50;;;;;;;2.77;1.40;;;13.50;99.90;;;;;;6322542;28;20203;-71
2021/09/30 03:31:52;;;;;;;1.37;1.10;;;13.50;99.90;;;;;;6322915;28;20188;-71
2021/09/30 03:35:13;;;;;;;1.17;1.10;;;13.50;99.90;;;;;;6323817;28;20552;-71
2021/09/30 03:38:17;;;;;;;7.70;1.80;;;13.50;99.90;;;;;;6322420;28;20190;-71
2021/09/30 03:41:19;;;;;;;1.77;1.00;;;13.50;99.90;;;;;;6322190;28;20232;-71
2021/09/30 03:44:22;;;;;;;1.53;1.30;;;13.40;99.90;;;;;;6322235;28;20362;-71
2021/09/30 03:47:25;;;;;;;2.27;1.30;;;13.40;99.90;;;;;;6321866;28;20264;-71
2021/09/30 03:51:18;;;;;;;2.53;0.90;;;13.40;99.90;;;;;;6322168;28;20208;-71
2021/09/30 03:54:02;;;;;;;1.13;1.03;;;13.40;99.90;;;;;;6318845;28;20263;-71
2021/09/30 04:00:38;;;;;;;2.03;1.10;;;13.40;99.90;;;;;;6302743;28;20254;-71
2021/09/30 04:03:40;;;;;;;1.70;1.07;;;13.40;99.90;;;;;;6322848;28;20320;-71
2021/09/30 04:06:42;;;;;;;1.70;1.00;;;13.40;99.90;;;;;;6321611;28;20217;-71
2021/09/30 04:09:45;;;;;;;2.53;1.30;;;13.30;99.90;;;;;;6321438;28;20193;-71
2021/09/30 04:12:47;;;;;;;1.93;1.27;;;13.30;99.90;;;;;;6321351;28;20205;-71
2021/09/30 04:15:50;;;;;;;1.77;1.30;;;13.30;99.90;;;;;;6321528;28;20233;-71
2021/09/30 04:18:53;;;;;;;1.90;0.90;;;13.30;99.90;;;;;;6321213;28;20754;-71
2021/09/30 04:21:57;;;;;;;1.17;1.03;;;13.30;99.90;;;;;;6321624;28;20308;-71
2021/09/30 04:24:59;;;;;;;1.03;0.87;;;13.30;99.90;;;;;;6322347;28;20347;-71
2021/09/30 04:28:01;;;;;;;1.20;0.77;;;13.20;99.90;;;;;;6321064;28;20208;-71
2021/09/30 04:31:04;;;;;;;1.10;0.97;;;13.20;99.90;;;;;;6321506;28;20647;-71
2021/09/30 04:34:21;;;;;;;1.17;0.80;;;13.20;99.90;;;;;;6322210;28;20189;-71
2021/09/30 04:37:25;;;;;;;0.80;0.80;;;13.20;99.90;;;;;;6321050;28;20203;-72
2021/09/30 04:40:27;;;;;;;1.17;1.07;;;13.20;99.90;;;;;;6322025;28;20558;-71
2021/09/30 04:43:29;;;;;;;2.03;0.80;;;13.10;99.90;;;;;;6321014;28;20323;-71
2021/09/30 04:46:32;;;;;;;0.60;0.50;;;13.10;99.90;;;;;;6320673;28;20453;-71
2021/09/30 04:49:57;;;;;;;1.63;1.00;;;13.10;99.90;;;;;;6318787;28;20210;-71
2021/09/30 04:53:01;;;;;;;0.70;0.63;;;13.10;99.90;;;;;;6320429;28;21001;-71
2021/09/30 04:56:11;;;;;;;0.63;0.63;;;13.10;99.90;;;;;;6320329;28;20678;-71
2021/09/30 04:59:20;;;;;;;0.87;0.60;;;13.10;99.90;;;;;;6320403;28;20212;-71
2021/09/30 05:02:38;;;;;;;0.87;0.60;;;13.10;99.90;;;;;;6320001;28;20244;-71
2021/09/30 05:05:40;;;;;;;0.93;0.50;;;13.10;99.90;;;;;;6320176;28;20209;-71
2021/09/30 05:08:45;;;;;;;1.47;0.50;;;13.10;99.90;;;;;;6320010;28;20251;-71
2021/09/30 05:11:51;;;;;;;1.23;0.87;;;13.10;99.90;;;;;;6320311;28;20190;-71
2021/09/30 05:14:53;;;;;;;0.70;0.70;;;13.10;99.90;;;;;;6319773;28;20251;-71
2021/09/30 05:17:56;;;;;;;0.80;0.80;;;13.10;99.90;;;;;;6319695;28;20292;-71
2021/09/30 05:20:58;;;;;;;2.27;0.93;;;13.10;99.90;;;;;;6319604;28;20235;-71
2021/09/30 05:24:01;;;;;;;1.90;0.80;;;13.10;99.90;;;;;;6319453;28;20358;-71
2021/09/30 05:27:04;;;;;;;2.67;1.03;;;13.10;99.90;;;;;;6319285;28;20275;-71
2021/09/30 05:30:06;;;;;;;0.87;0.70;;;13.10;99.90;;;;;;6319281;28;20216;-71
2021/09/30 05:33:09;;;;;;;1.27;0.90;;;13.10;99.90;;;;;;6319072;28;20186;-71
2021/09/30 05:36:11;;;;;;;1.23;0.80;;;13.10;99.90;;;;;;6319515;28;20631;-71
2021/09/30 05:39:14;;;;;;;1.60;0.90;;;13.10;99.90;;;;;;6319157;28;20249;-71
2021/09/30 05:42:17;;;;;;;2.23;0.90;;;13.10;99.90;;;;;;6318108;28;20230;-71
2021/09/30 05:45:21;;;;;;;1.33;1.00;;;13.20;99.90;;;;;;6318884;28;20206;-71
2021/09/30 05:48:25;;;;;;;1.43;0.80;;;13.20;99.90;;;;;;6318843;28;20244;-71
2021/09/30 05:51:27;;;;;;;0.63;0.63;;;13.20;99.90;;;;;;6318789;28;20197;-71
2021/09/30 05:54:50;;;;;;;1.97;0.70;;;13.20;99.90;;;;;;6319848;28;20195;-71
2021/09/30 05:57:59;;;;;;;1.37;0.70;;;13.20;99.90;;;;;;6318693;28;20205;-71
2021/09/30 06:04:10;;;;;;;0.73;0.70;;;13.20;99.90;;;;;;6318156;28;20285;-71
2021/09/30 06:11:19;;;;;;;2.63;0.97;;;13.30;99.90;;;;;;6318414;28;20265;-71
2021/09/30 06:14:24;;;;;;;1.27;0.87;;;13.30;99.90;;;;;;6318285;28;20194;-71
2021/09/30 06:17:28;;;;;;;1.20;1.10;;;13.30;99.90;;;;;;6318233;28;20292;-71
2021/09/30 06:20:31;;;;;;;1.23;1.10;;;13.30;99.90;;;;;;6318223;28;20224;-71
2021/09/30 06:23:33;;;;;;;1.67;1.03;;;13.30;99.90;;;;;;6319411;28;20188;-71
2021/09/30 06:26:38;;;;;;;1.63;0.90;;;13.30;99.90;;;;;;6318059;28;20296;-71
2021/09/30 06:29:48;;;;;;;1.47;1.00;;;13.40;99.90;;;;;;6317927;28;20546;-71
2021/09/30 06:32:52;;;;;;;1.83;0.90;;;13.40;99.90;;;;;;6317937;28;20209;-71
2021/09/30 06:36:13;;;;;;;2.13;1.00;;;13.40;99.90;;;;;;6319598;28;20193;-72
2021/09/30 06:39:15;;;;;;;1.23;0.90;;;13.40;99.90;;;;;;6317705;28;20217;-71
2021/09/30 06:42:20;;;;;;;1.00;0.87;;;13.50;99.90;;;;;;6319266;28;20726;-71
2021/09/30 06:45:22;;;;;;;1.03;0.70;;;13.50;99.90;;;;;;6318020;28;20555;-72
2021/09/30 06:48:51;;;;;;;0.80;0.80;;;13.50;99.90;;;;;;6309961;28;20239;-72
2021/09/30 06:52:03;;;;;;;1.27;0.87;;;13.50;99.90;;;;;;6317536;28;20214;-71
2021/09/30 06:55:06;;;;;;;1.53;1.10;;;13.50;99.90;;;;;;6317319;28;20645;-71
2021/09/30 06:58:41;;;;;;;1.07;0.97;;;13.50;99.90;;;;;;6309930;28;20213;-71
2021/09/30 07:02:09;;;;;;;1.53;1.30;;;13.60;99.90;;;;;;6307730;28;20267;-71
2021/09/30 07:05:48;;;;;;;1.20;1.10;;;13.60;99.90;;;;;;6291151;28;20330;-71
2021/09/30 07:08:55;;;;;;;1.67;1.20;;;13.70;99.90;;;;;;6318678;28;20194;-71
2021/09/30 07:11:59;;;;;;;1.60;1.00;;;13.70;99.90;;;;;;6317300;28;20200;-71
2021/09/30 07:15:03;;;;;;;1.20;1.00;;;13.70;99.90;;;;;;6318585;28;20203;-71
2021/09/30 07:18:13;;;;;;;1.13;1.00;;;13.80;99.90;;;;;;6318941;28;20202;-71
2021/09/30 07:21:15;;;;;;;2.73;1.13;;;13.80;99.90;;;;;;6317139;28;20204;-71
2021/09/30 07:24:18;;;;;;;3.00;1.30;;;13.80;99.90;;;;;;6317027;28;20766;-71
2021/09/30 07:27:21;;;;;;;1.20;1.03;;;13.80;99.90;;;;;;6317076;28;20725;-72
2021/09/30 07:30:23;;;;;;;1.17;0.80;;;13.80;99.90;;;;;;6318038;28;20190;-72
2021/09/30 07:33:25;;;;;;;1.20;0.90;;;13.90;99.90;;;;;;6317023;28;20186;-71
2021/09/30 07:36:27;;;;;;;1.50;1.00;;;13.90;99.90;;;;;;6317134;28;20215;-71
2021/09/30 07:39:30;;;;;;;1.80;1.10;;;14.00;99.90;;;;;;6318396;28;20185;-71
2021/09/30 07:42:32;;;;;;;1.50;0.90;;;14.00;99.90;;;;;;6317136;28;20201;-71
2021/09/30 07:45:35;;;;;;;1.20;1.10;;;14.00;99.90;;;;;;6317395;28;20216;-71
2021/09/30 07:48:37;;;;;;;2.97;0.77;;;14.10;99.90;;;;;;6316627;28;20238;-71
2021/09/30 07:51:41;;;;;;;0.97;0.80;;;14.10;99.90;;;;;;6317873;28;20180;-71
2021/09/30 07:54:43;;;;;;;4.13;0.90;;;14.10;99.90;;;;;;6318210;28;20187;-72
2021/09/30 07:57:45;;;;;;;2.90;0.90;;;14.20;99.90;;;;;;6316723;28;20202;-71
2021/09/30 08:00:47;;;;;;;1.77;0.60;;;14.30;99.90;;;;;;6317716;28;20216;-71
2021/09/30 08:03:50;;;;;;;1.63;0.90;;;14.40;99.90;;;;;;6317930;28;20605;-71
2021/09/30 08:06:53;;;;;;;0.70;0.60;;;14.50;99.90;;;;;;6319548;28;20772;-71
2021/09/30 08:09:55;;;;;;;1.93;1.00;;;14.60;99.90;;;;;;6322627;28;20190;-71
2021/09/30 08:12:57;;;;;;;0.67;0.63;;;14.60;99.90;;;;;;6321268;28;20197;-71
2021/09/30 08:16:00;;;;;;;2.70;0.87;;;14.70;99.90;;;;;;6322061;28;20181;-71
2021/09/30 08:19:03;;;;;;;1.10;0.70;;;14.60;99.90;;;;;;6322529;28;20227;-71
2021/09/30 08:22:05;;;;;;;2.40;0.90;;;14.50;99.90;;;;;;6322598;28;20405;-71
2021/09/30 08:25:08;;;;;;;1.90;0.77;;;14.50;99.90;;;;;;6322222;28;20197;-71
2021/09/30 08:28:11;;;;;;;1.27;0.80;;;14.50;99.90;;;;;;6322781;28;20325;-71
2021/09/30 08:31:14;;;;;;;1.10;0.70;;;14.60;99.90;;;;;;6320914;28;20786;-71
2021/09/30 08:34:16;;;;;;;0.80;0.60;;;14.70;99.90;;;;;;6320875;28;20490;-71
2021/09/30 08:37:19;;;;;;;2.53;1.07;;;14.90;99.90;;;;;;6321881;28;20201;-71
2021/09/30 08:40:21;;;;;;;1.10;1.00;;;15.10;99.90;;;;;;6322242;28;20204;-71
2021/09/30 08:43:24;;;;;;;2.40;0.77;;;15.20;99.90;;;;;;6321626;28;20264;-71
2021/09/30 08:46:26;;;;;;;4.70;1.10;;;15.30;99.90;;;;;;6320706;28;20190;-71
2021/09/30 08:49:28;;;;;;;2.00;1.00;;;15.40;99.90;;;;;;6320443;28;20492;-71
2021/09/30 08:52:31;;;;;;;2.30;1.00;;;15.50;99.90;;;;;;6321611;28;20544;-71
2021/09/30 08:55:33;;;;;;;1.07;0.90;;;15.60;99.90;;;;;;6321860;28;20668;-71
2021/09/30 08:58:39;;;;;;;1.87;0.83;;;15.60;99.90;;;;;;6320128;28;20182;-72
2021/09/30 09:02:03;;;;;;;1.30;1.03;;;15.40;99.90;;;;;;6321306;28;20225;-71
2021/09/30 09:05:21;;;;;;;1.20;1.10;;;15.40;99.90;;;;;;6321159;28;20186;-71
2021/09/30 09:08:23;;;;;;;1.40;1.03;;;15.40;99.90;;;;;;6321099;28;20214;-71
2021/09/30 09:11:26;;;;;;;1.90;1.30;;;15.60;99.90;;;;;;6321093;28;20186;-72
2021/09/30 09:14:31;;;;;;;0.93;0.83;;;15.80;99.90;;;;;;6320735;28;20261;-71
2021/09/30 09:17:33;;;;;;;1.50;1.10;;;16.10;99.90;;;;;;6319646;28;20186;-71
2021/09/30 09:20:35;;;;;;;1.50;1.10;;;16.50;99.70;;;;;;6320656;28;20656;-71
2021/09/30 09:23:53;;;;;;;1.60;1.20;;;17.00;99.10;;;;;;6320939;28;20248;-71
2021/09/30 09:26:59;;;;;;;0.70;0.70;;;17.60;98.00;;;;;;6319404;28;20252;-72
2021/09/30 09:30:24;;;;;;;2.50;1.03;;;17.80;96.80;;;;;;6320621;28;20178;-72
2021/09/30 09:33:29;;;;;;;2.40;1.00;;;18.00;94.10;;;;;;6320865;28;20195;-72
2021/09/30 09:36:31;;;;;;;1.40;0.83;;;18.10;95.00;;;;;;6320676;28;20562;-71
2021/09/30 09:39:35;;;;;;;1.80;0.60;;;18.20;94.30;;;;;;6295531;28;20201;-71
2021/09/30 09:42:37;;;;;;;2.10;0.73;;;18.40;92.60;;;;;;6317382;28;20564;-72
2021/09/30 09:45:46;;;;;;;0.63;0.53;;;18.80;92.30;;;;;;6320328;28;20197;-72
2021/09/30 09:49:05;;;;;;;1.87;0.70;;;19.00;90.70;;;;;;6320682;28;20202;-72
2021/09/30 09:52:08;;;;;;;1.20;0.80;;;19.10;90.90;;;;;;6320021;28;20265;-71
2021/09/30 09:55:21;;;;;;;0.77;0.60;;;19.10;90.40;;;;;;6320114;28;20186;-71
2021/09/30 09:58:23;;;;;;;1.00;0.87;;;19.10;91.00;;;;;;6318725;28;20225;-71
2021/09/30 10:01:36;;;;;;;3.37;1.10;;;18.80;89.40;;;;;;6319300;28;20610;-72
2021/09/30 10:04:43;;;;;;;1.27;0.90;;;18.50;88.80;;;;;;6318531;28;20223;-71
2021/09/30 10:07:47;;;;;;;1.47;0.90;;;18.20;91.20;;;;;;6319843;28;20593;-71
2021/09/30 10:10:53;;;;;;;1.60;0.93;;;18.10;91.60;;;;;;6318647;28;20213;-72
2021/09/30 10:13:58;;;;;;;1.07;0.97;;;17.90;91.90;;;;;;6318358;28;20186;-72
2021/09/30 10:17:00;;;;;;;1.10;0.90;;;17.70;91.60;;;;;;6319559;28;20195;-72
2021/09/30 10:20:04;;;;;;;1.23;0.83;;;17.50;92.00;;;;;;6318593;28;20197;-72
2021/09/30 10:23:08;;;;;;;1.60;0.73;;;17.30;91.30;;;;;;6319402;28;20193;-70
2021/09/30 10:26:24;;;;;;;0.93;0.70;;;17.20;90.60;;;;;;6318109;28;20190;-71
2021/09/30 10:29:45;;;;;;;1.50;0.87;;;17.30;91.00;;;;;;6318436;28;20666;-71
2021/09/30 10:32:51;;;;;;;1.27;0.90;;;17.50;90.70;;;;;;6319148;28;20200;-71
2021/09/30 10:35:54;;;;;;;3.23;0.60;;;17.90;90.30;;;;;;6317790;28;20185;-71
2021/09/30 10:39:22;;;;;;;1.40;0.80;;;18.00;88.90;;;;;;6319218;28;20327;-71
2021/09/30 10:42:57;;;;;;;1.03;0.73;;;18.20;89.80;;;;;;6317703;28;20194;-72
2021/09/30 10:46:02;;;;;;;0.93;0.73;;;18.60;88.50;;;;;;6319034;28;20191;-72
2021/09/30 10:49:42;;;;;;;1.63;0.50;;;18.90;89.20;;;;;;6318965;28;20225;-72
2021/09/30 10:52:54;;;;;;;1.87;0.70;;;19.50;84.80;;;;;;6318977;28;20550;-72
2021/09/30 10:55:56;;;;;;;1.20;0.60;;;20.00;80.50;;;;;;6317758;28;20192;-71
2021/09/30 10:59:22;;;;;;;1.93;0.40;;;20.40;78.50;;;;;;6318733;28;20334;-71
2021/09/30 11:02:24;;;;;;;3.00;0.70;;;20.80;76.90;;;;;;6293265;28;20365;-71
2021/09/30 11:05:31;;;;;;;1.27;0.50;;;21.30;74.80;;;;;;6305667;28;20212;-71
2021/09/30 11:08:33;;;;;;;1.27;0.70;;;21.40;71.80;;;;;;6303348;28;20209;-71
2021/09/30 11:11:38;;;;;;;1.27;0.50;;;21.30;71.00;;;;;;6299791;28;20190;-71
2021/09/30 11:14:54;;;;;;;1.23;0.80;;;20.90;73.60;;;;;;6304555;28;20197;-72
2021/09/30 11:17:57;;;;;;;1.07;0.40;;;21.10;71.70;;;;;;6318624;28;20433;-71
2021/09/30 11:20:59;;;;;;;1.40;0.50;;;21.20;69.00;;;;;;6318388;28;20182;-71
2021/09/30 11:24:04;;;;;;;0.80;0.60;;;21.30;68.50;;;;;;6317837;28;20209;-71
2021/09/30 11:27:09;;;;;;;1.00;0.55;;;21.40;64.80;;;;;;6317308;28;20197;-71
2021/09/30 11:30:24;;;;;;;1.23;0.60;;;21.40;67.20;;;;;;6318447;28;20195;-72
2021/09/30 11:33:26;;;;;;;3.67;0.70;;;21.50;65.00;;;;;;6293254;28;20187;-72
2021/09/30 11:36:33;;;;;;;0.70;0.60;;;21.50;63.60;;;;;;6315888;28;20758;-71
2021/09/30 11:39:35;;;;;;;1.97;0.50;;;21.10;63.30;;;;;;6320027;28;20186;-72
2021/09/30 11:42:47;;;;;;;2.47;0.70;;;20.70;67.00;;;;;;6323518;28;20255;-71
2021/09/30 11:45:49;;;;;;;0.90;0.47;;;20.40;66.00;;;;;;6323265;28;20198;-71
2021/09/30 11:49:03;;;;;;;1.23;0.63;;;20.30;67.80;;;;;;6323050;28;20221;-71
2021/09/30 11:52:11;;;;;;;0.60;0.50;;;20.20;65.40;;;;;;6321927;28;20185;-72
2021/09/30 11:55:17;;;;;;;0.90;0.50;;;19.80;65.20;;;;;;6323038;28;20216;-71
2021/09/30 11:58:23;;;;;;;1.47;0.60;;;19.70;67.80;;;;;;6323446;28;20716;-71
2021/09/30 12:01:49;;;;;;;0.60;0.30;;;19.30;67.70;;;;;;6297656;28;20241;-71
2021/09/30 12:04:52;;;;;;;0.93;0.57;;;18.80;69.60;;;;;;6321516;28;20680;-71
2021/09/30 12:07:58;;;;;;;0.60;0.60;;;18.50;71.80;;;;;;6322782;28;20210;-71
2021/09/30 12:11:04;;;;;;;0.80;0.50;;;18.40;73.40;;;;;;6322576;28;20424;-72
2021/09/30 12:14:08;;;;;;;3.57;0.60;;;18.20;75.30;;;;;;6322914;28;20188;-71
2021/09/30 12:17:13;;;;;;;0.80;0.70;;;18.00;76.90;;;;;;6322531;28;20239;-71
2021/09/30 12:20:18;;;;;;;2.07;0.53;;;17.90;78.30;;;;;;6320992;28;20201;-71
2021/09/30 12:23:21;;;;;;;2.13;0.70;;;17.90;77.80;;;;;;6322417;28;20186;-72
2021/09/30 12:26:24;;;;;;;0.50;0.50;;;17.70;77.70;;;;;;6322290;28;20184;-71
2021/09/30 12:29:26;;;;;;;0.60;0.50;;;17.60;78.90;;;;;;6322263;28;20208;-71
2021/09/30 12:32:35;;;;;;;0.50;0.50;;;17.70;79.40;;;;;;6322041;28;20267;-71
2021/09/30 12:35:43;;;;;;;2.50;0.60;;;17.90;80.00;;;;;;6322113;28;20681;-71
2021/09/30 12:39:03;;;;;;;0.83;0.60;;;18.20;78.50;;;;;;6320725;28;20255;-71
2021/09/30 12:42:16;;;;;;;1.83;0.60;;;18.40;79.80;;;;;;6320694;28;20193;-72
2021/09/30 12:45:18;;;;;;;1.80;0.70;;;18.50;76.40;;;;;;6322017;28;20206;-71
2021/09/30 12:48:23;;;;;;;1.70;0.70;;;18.70;75.30;;;;;;6321757;28;20335;-71
2021/09/30 12:51:25;;;;;;;0.97;0.50;;;18.50;74.90;;;;;;6319821;28;20673;-71
2021/09/30 12:54:27;;;;;;;2.33;0.70;;;18.40;78.70;;;;;;6321573;28;20591;-71
2021/09/30 12:57:36;;;;;;;0.53;0.53;;;18.30;72.80;;;;;;6321505;28;20212;-71
2021/09/30 13:00:38;;;;;;;0.83;0.50;;;18.70;73.70;;;;;;6321411;28;20214;-71
2021/09/30 13:03:41;;;;;;;1.97;0.50;;;19.20;72.00;;;;;;6319731;28;20230;-71
2021/09/30 13:07:02;;;;;;;1.47;0.40;;;19.50;71.90;;;;;;6321434;28;20190;-71
2021/09/30 13:10:05;;;;;;;1.40;0.30;;;20.10;71.10;;;;;;6321197;28;20592;-71
2021/09/30 13:13:16;;;;;;;1.57;0.50;;;20.50;66.40;;;;;;6321101;28;20182;-71
2021/09/30 13:16:23;;;;;;;2.07;0.63;;;21.00;63.60;;;;;;6321306;28;20182;-72
2021/09/30 13:19:47;;;;;;;1.57;0.50;;;21.50;59.90;;;;;;6320957;28;20680;-71
2021/09/30 13:22:50;;;;;;;1.00;0.63;;;22.50;57.50;;;;;;6320943;28;20202;-72
2021/09/30 13:25:52;;;;;;;1.20;0.50;;;23.10;55.50;;;;;;6320634;28;20193;-72
2021/09/30 13:28:55;;;;;;;1.00;0.50;;;23.90;53.70;;;;;;6320565;28;20575;-71
2021/09/30 13:31:59;;;;;;;0.70;0.50;;;24.70;51.30;;;;;;6319479;28;20186;-71
2021/09/30 13:35:04;;;;;;;0.97;0.83;;;24.40;52.80;;;;;;6319345;28;20205;-71
2021/09/30 13:38:07;;;;;;;0.40;0.40;;;23.40;53.70;;;;;;6320657;28;20190;-72
2021/09/30 13:41:09;;;;;;;1.50;0.50;;;22.40;54.00;;;;;;6319047;28;20264;-71
2021/09/30 13:44:12;;;;;;;1.07;0.50;;;22.90;53.50;;;;;;6320892;28;20209;-72
2021/09/30 13:47:14;;;;;;;0.97;0.53;;;24.00;51.10;;;;;;6318881;28;20202;-71
2021/09/30 13:50:21;;;;;;;0.30;0.30;;;24.70;49.90;;;;;;6320300;28;20206;-72
2021/09/30 13:53:23;;;;;;;1.23;0.40;;;25.00;48.30;;;;;;6318806;28;20565;-72
2021/09/30 13:56:27;;;;;;;1.13;0.30;;;24.70;48.90;;;;;;6318744;28;20247;-72
2021/09/30 13:59:30;;;;;;;1.23;0.57;;;24.10;48.60;;;;;;6319940;28;20194;-71
2021/09/30 14:02:54;;;;;;;2.17;0.60;;;23.40;49.30;;;;;;6317374;28;20230;-71
2021/09/30 14:05:57;;;;;;;1.03;0.50;;;22.60;50.80;;;;;;6319865;28;20677;-72
2021/09/30 14:09:00;;;;;;;0.60;0.40;;;21.80;51.10;;;;;;6318531;28;20215;-72
2021/09/30 14:12:06;;;;;;;0.80;0.40;;;21.20;53.60;;;;;;6318536;28;20202;-71
2021/09/30 14:15:09;;;;;;;1.07;0.40;;;20.70;53.30;;;;;;6318475;28;20200;-71
2021/09/30 14:18:11;;;;;;;0.80;0.40;;;20.40;54.40;;;;;;6318170;28;20209;-71
2021/09/30 14:21:14;;;;;;;1.57;0.50;;;20.10;55.40;;;;;;6319665;28;20194;-71
2021/09/30 14:24:16;;;;;;;0.73;0.40;;;20.00;55.90;;;;;;6319389;28;20186;-71
2021/09/30 14:27:21;;;;;;;2.13;0.47;;;19.80;57.30;;;;;;6319404;28;20197;-71
2021/09/30 14:30:23;;;;;;;0.83;0.60;;;19.60;58.10;;;;;;6319274;28;20206;-71
2021/09/30 14:33:45;;;;;;;1.53;0.67;;;19.50;59.20;;;;;;6319353;28;20183;-71
2021/09/30 14:36:48;;;;;;;1.07;0.57;;;19.30;59.70;;;;;;6319298;28;20642;-71
2021/09/30 14:39:50;;;;;;;0.30;0.30;;;19.00;59.00;;;;;;6319218;28;20265;-72
2021/09/30 14:42:52;;;;;;;2.03;0.50;;;18.90;59.50;;;;;;6318006;28;20217;-71
2021/09/30 14:45:55;;;;;;;1.43;0.50;;;18.80;59.90;;;;;;6317746;28;20243;-71
2021/09/30 14:48:57;;;;;;;2.53;0.50;;;18.80;59.40;;;;;;6318803;28;20206;-71
2021/09/30 14:51:59;;;;;;;1.37;0.60;;;18.70;59.90;;;;;;6318975;28;20188;-71
2021/09/30 14:55:03;;;;;;;0.57;0.57;;;18.70;61.10;;;;;;6319056;28;20664;-71
2021/09/30 14:58:06;;;;;;;1.27;0.50;;;18.70;63.50;;;;;;6318827;28;20235;-72
2021/09/30 15:01:09;;;;;;;1.53;0.40;;;18.70;65.50;;;;;;6318375;28;20218;-71
2021/09/30 15:04:11;;;;;;;1.27;0.50;;;18.70;66.60;;;;;;6319220;28;20185;-71
2021/09/30 15:07:13;;;;;;;0.30;0.30;;;18.60;65.60;;;;;;6318613;28;20193;-71
2021/09/30 15:10:16;;;;;;;0.60;0.40;;;18.60;67.30;;;;;;6318563;28;20689;-71
2021/09/30 15:13:18;;;;;;;1.20;0.30;;;18.60;67.80;;;;;;6317223;28;20196;-71
2021/09/30 15:16:21;;;;;;;2.80;0.50;;;18.50;68.70;;;;;;6318172;28;20196;-71
2021/09/30 15:19:32;;;;;;;2.10;0.40;;;18.40;69.30;;;;;;6317290;28;20202;-71
2021/09/30 15:22:36;;;;;;;1.03;0.40;;;18.30;69.40;;;;;;6318583;28;20182;-71
2021/09/30 15:25:46;;;;;;;1.13;0.40;;;18.20;69.30;;;;;;6318494;28;20564;-71
2021/09/30 15:28:50;;;;;;;3.67;0.70;;;17.90;70.20;;;;;;6318221;28;20210;-72
2021/09/30 15:31:52;;;;;;;0.47;0.40;;;17.60;72.40;;;;;;6318414;28;20185;-71
2021/09/30 15:34:54;;;;;;;0.60;0.40;;;17.20;71.60;;;;;;6317123;28;20201;-71
2021/09/30 15:37:56;;;;;;;0.50;0.50;;;17.00;73.40;;;;;;6310062;28;20658;-71
2021/09/30 15:40:59;;;;;;;1.90;0.50;;;16.80;73.10;;;;;;6310036;28;20594;-71
2021/09/30 15:44:20;;;;;;;0.50;0.40;;;16.70;73.10;;;;;;6317034;28;20784;-71
2021/09/30 15:47:23;;;;;;;1.17;0.70;;;16.60;74.10;;;;;;6312920;28;20195;-71
2021/09/30 15:50:26;;;;;;;4.23;0.47;;;16.50;76.00;;;;;;6302091;28;20206;-71
2021/09/30 15:53:28;;;;;;;2.10;0.50;;;16.30;78.40;;;;;;6316559;28;20205;-71
2021/09/30 15:56:30;;;;;;;0.43;0.40;;;16.10;79.80;;;;;;6318101;28;20186;-71
2021/09/30 15:59:32;;;;;;;0.87;0.40;;;15.90;80.90;;;;;;6318100;28;20198;-71
2021/09/30 16:02:35;;;;;;;2.73;0.57;;;15.70;82.20;;;;;;6317828;28;20241;-71
2021/09/30 16:05:38;;;;;;;0.63;0.40;;;15.50;83.70;;;;;;6316747;28;20202;-71
2021/09/30 16:08:41;;;;;;;0.50;0.40;;;15.30;85.50;;;;;;6316332;28;20296;-71
2021/09/30 16:11:44;;;;;;;0.83;0.50;;;15.00;87.10;;;;;;6318013;28;20186;-71
2021/09/30 16:14:48;;;;;;;0.60;0.40;;;14.80;88.70;;;;;;6316508;28;20324;-71
2021/09/30 16:17:51;;;;;;;0.50;0.43;;;14.70;90.00;;;;;;6317943;28;20196;-71
2021/09/30 16:20:56;;;;;;;0.87;0.47;;;14.40;90.50;;;;;;6317947;28;20209;-71
2021/09/30 16:23:59;;;;;;;0.60;0.40;;;14.20;91.10;;;;;;6316711;28;20198;-71
2021/09/30 16:27:01;;;;;;;3.13;0.60;;;14.00;91.80;;;;;;6319850;28;20190;-71
2021/09/30 16:30:08;;;;;;;2.03;0.63;;;13.80;92.60;;;;;;6320596;28;20206;-71
2021/09/30 16:33:10;;;;;;;1.33;0.50;;;13.60;93.00;;;;;;6322391;28;20194;-71
2021/09/30 16:36:13;;;;;;;2.23;0.70;;;13.40;93.90;;;;;;6322466;28;20190;-71
2021/09/30 16:39:15;;;;;;;1.80;0.80;;;13.30;94.30;;;;;;6322144;28;20693;-71
2021/09/30 16:42:17;;;;;;;1.20;0.50;;;13.20;94.60;;;;;;6322186;28;20201;-71
2021/09/30 16:45:20;;;;;;;2.67;0.60;;;13.10;95.20;;;;;;6321988;28;20197;-71
2021/09/30 16:48:23;;;;;;;1.20;0.60;;;12.90;95.60;;;;;;6320643;28;20202;-71
2021/09/30 16:51:26;;;;;;;1.77;0.60;;;12.80;96.00;;;;;;6321915;28;20186;-71
2021/09/30 16:54:28;;;;;;;1.00;0.53;;;12.70;97.00;;;;;;6322029;28;20537;-71
2021/09/30 16:57:30;;;;;;;1.50;0.40;;;12.50;98.00;;;;;;6320430;28;20687;-71
2021/09/30 17:00:34;;;;;;;4.10;0.80;;;12.30;98.80;;;;;;6321573;28;20596;-71
2021/09/30 17:03:37;;;;;;;1.87;0.53;;;12.20;99.40;;;;;;6321590;28;20228;-71
2021/09/30 17:06:43;;;;;;;0.67;0.53;;;12.00;99.90;;;;;;6321400;28;20274;-71
2021/09/30 17:09:45;;;;;;;3.07;0.97;;;11.80;99.90;;;;;;6321374;28;20279;-71
2021/09/30 17:12:51;;;;;;;2.10;0.60;;;11.70;99.90;;;;;;6320331;28;20292;-71
2021/09/30 17:15:58;;;;;;;1.57;0.67;;;11.60;99.90;;;;;;6321204;28;20189;-71
2021/09/30 17:19:01;;;;;;;1.50;0.53;;;11.50;99.90;;;;;;6321415;28;20173;-71
2021/09/30 17:22:06;;;;;;;1.00;0.90;;;11.40;99.90;;;;;;6321413;28;20196;-71
2021/09/30 17:25:09;;;;;;;2.53;0.67;;;11.30;99.90;;;;;;6321287;28;20580;-71
2021/09/30 17:28:11;;;;;;;3.00;0.70;;;11.10;99.90;;;;;;6321628;28;20195;-71
2021/09/30 17:31:15;;;;;;;3.87;0.80;;;11.00;99.90;;;;;;6320830;28;20296;-71
2021/09/30 17:34:17;;;;;;;1.10;0.60;;;10.90;99.90;;;;;;6321014;28;20200;-71
2021/09/30 17:37:19;;;;;;;1.57;0.70;;;10.90;99.90;;;;;;6319293;28;20198;-71
2021/09/30 17:40:23;;;;;;;1.17;0.80;;;10.80;99.90;;;;;;6319805;28;20201;-71
2021/09/30 17:43:27;;;;;;;1.00;0.60;;;10.80;99.90;;;;;;6320645;28;20677;-70
2021/09/30 17:46:30;;;;;;;0.90;0.70;;;10.70;99.90;;;;;;6320694;28;20186;-71
2021/09/30 17:49:33;;;;;;;1.20;0.50;;;10.70;99.90;;;;;;6319440;28;20198;-70
2021/09/30 17:52:36;;;;;;;1.17;0.67;;;10.60;99.90;;;;;;6319160;28;20600;-70
2021/09/30 17:55:39;;;;;;;1.70;0.80;;;10.60;99.90;;;;;;6302360;28;20198;-71
2021/09/30 17:58:41;;;;;;;2.33;0.83;;;10.50;99.90;;;;;;6318887;28;20217;-70
2021/09/30 18:01:44;;;;;;;1.30;0.50;;;10.40;99.90;;;;;;6318880;28;20241;-71
2021/09/30 18:04:47;;;;;;;3.23;0.60;;;10.40;99.90;;;;;;6320263;28;20215;-70
2021/09/30 18:07:49;;;;;;;1.17;0.70;;;10.30;99.90;;;;;;6320119;28;20212;-70
2021/09/30 18:10:54;;;;;;;1.93;0.70;;;10.20;99.90;;;;;;6320013;28;20201;-71
2021/09/30 18:13:58;;;;;;;2.23;0.90;;;10.00;99.90;;;;;;6320691;28;20178;-70
2021/09/30 18:17:01;;;;;;;1.90;0.80;;;9.90;99.90;;;;;;6318628;28;20668;-70
2021/09/30 18:20:08;;;;;;;1.00;0.90;;;9.80;99.90;;;;;;6318711;28;20718;-70
2021/09/30 18:23:14;;;;;;;1.37;0.63;;;9.70;99.90;;;;;;6318606;28;20661;-70
2021/09/30 18:26:19;;;;;;;2.17;0.70;;;9.60;99.90;;;;;;6318611;28;20190;-70
2021/09/30 18:29:22;;;;;;;1.57;0.63;;;9.60;99.90;;;;;;6319374;28;20684;-70
2021/09/30 18:32:25;;;;;;;1.90;0.57;;;9.50;99.90;;;;;;6301723;28;20270;-70
2021/09/30 18:35:27;;;;;;;8.23;0.80;;;9.50;99.90;;;;;;6318193;28;20190;-70
2021/09/30 18:38:29;;;;;;;1.07;0.80;;;9.40;99.90;;;;;;6319554;28;20265;-71
2021/09/30 18:41:32;;;;;;;1.00;0.40;;;9.30;99.90;;;;;;6319596;28;20272;-70
2021/09/30 18:44:39;;;;;;;1.07;0.63;;;9.30;99.90;;;;;;6318049;28;20196;-71
2021/09/30 18:47:41;;;;;;;1.57;0.60;;;9.20;99.90;;;;;;6318131;28;20344;-70
2021/09/30 18:50:44;;;;;;;0.77;0.70;;;9.10;99.90;;;;;;6317180;28;20214;-70
2021/09/30 18:53:47;;;;;;;2.23;0.90;;;9.10;99.90;;;;;;6319178;28;20200;-70